createdAt,value
2023-04-18T18:11:48.631Z,57.9015
2023-04-18T18:12:51.151Z,56.8731
2023-04-18T18:43:53.371Z,47.0346
2023-04-18T18:44:55.966Z,46.5247
2023-04-18T18:47:23.166Z,44.0403
2023-04-18T18:48:25.943Z,45.0717
2023-04-18T18:49:28.319Z,45.5239
2023-04-18T18:50:30.966Z,46.4506
2023-04-18T18:51:33.519Z,47.2744
2023-04-18T18:52:36.109Z,48.1817
2023-04-18T18:53:40.370Z,49.2399
2023-04-18T18:54:41.634Z,49.8708
2023-04-18T18:55:43.850Z,50.8683
2023-04-18T18:56:46.466Z,51.6430
2023-04-18T18:57:49.037Z,52.2370
2023-04-18T18:58:51.639Z,52.5853
2023-04-18T18:59:55.858Z,54.2545
2023-04-18T19:00:56.841Z,54.2487
2023-04-18T19:01:59.509Z,54.5962
2023-04-18T19:03:02.185Z,55.7028
2023-04-18T19:04:04.881Z,56.4811
2023-04-18T19:05:07.246Z,57.0739
2023-04-18T19:06:09.815Z,57.6650
2023-04-18T19:07:12.430Z,58.7302
2023-04-18T19:08:15.030Z,59.5082
2023-04-18T19:09:17.639Z,59.8686
2023-04-18T19:10:20.211Z,60.2299
2023-04-18T19:11:22.832Z,60.6541
2023-04-18T19:12:25.414Z,61.0286
2023-04-18T19:13:28.452Z,61.3671
2023-04-18T19:14:30.637Z,61.4549
2023-04-18T19:15:33.824Z,61.1862
2023-04-18T19:16:35.904Z,61.3606
2023-04-18T19:17:38.470Z,61.6651
2023-04-18T19:18:41.023Z,61.8023
2023-04-18T19:19:43.648Z,61.8339
2023-04-18T19:20:46.218Z,61.9634
2023-04-18T19:21:48.850Z,61.6278
2023-04-18T19:22:51.421Z,61.5601
2023-04-18T19:23:54.045Z,61.4599
2023-04-18T19:24:56.625Z,61.2328
2023-04-18T19:25:59.252Z,61.3841
2023-04-18T19:27:01.824Z,61.4925
2023-04-18T19:28:04.444Z,61.6110
2023-04-18T19:29:07.016Z,61.9558
2023-04-18T19:30:09.632Z,62.0183
2023-04-18T19:31:12.220Z,62.2306
2023-04-18T19:32:14.833Z,62.1283
2023-04-18T19:33:17.437Z,62.3074
2023-04-18T19:34:20.318Z,62.4385
2023-04-18T19:35:22.636Z,62.4664
2023-04-18T19:36:25.380Z,62.8027
2023-04-18T19:37:27.829Z,62.9039
2023-04-18T19:38:30.447Z,63.0818
2023-04-18T19:39:33.030Z,63.1881
2023-04-18T19:40:35.662Z,63.1844
2023-04-18T19:41:38.226Z,63.5513
2023-04-18T19:42:40.844Z,63.4158
2023-04-18T19:43:43.424Z,63.4978
2023-04-18T19:44:46.056Z,63.5996
2023-04-18T19:45:48.681Z,63.6946
2023-04-18T19:46:51.259Z,63.8006
2023-04-18T19:47:53.881Z,63.9363
2023-04-18T19:48:56.469Z,63.8451
2023-04-18T19:49:59.043Z,63.8210
2023-04-18T19:51:01.733Z,63.7407
2023-04-18T19:52:04.292Z,63.7073
2023-04-18T19:53:06.885Z,63.6923
2023-04-18T19:54:09.483Z,63.7773
2023-04-18T19:55:12.095Z,63.6583
2023-04-18T19:56:14.658Z,63.7268
2023-04-18T19:57:17.295Z,63.8434
2023-04-18T19:58:19.861Z,63.8024
